createdAt,value
2022-12-28T00:01:32.854Z,41.42
2022-12-28T00:04:03.381Z,37.80
2022-12-28T00:06:32.398Z,38.55
2022-12-28T00:09:01.287Z,38.98
2022-12-28T00:11:30.936Z,37.98
2022-12-28T00:14:00.887Z,37.78
2022-12-28T00:16:35.289Z,35.45
2022-12-28T00:19:07.339Z,34.10
2022-12-28T00:21:34.836Z,35.80
2022-12-28T00:24:02.582Z,33.48
2022-12-28T00:26:33.299Z,33.83
2022-12-28T00:29:05.342Z,30.72
2022-12-28T00:31:32.099Z,31.90
2022-12-28T00:33:59.824Z,29.45
2022-12-28T00:37:08.386Z,27.80
2022-12-28T00:38:57.300Z,27.48
2022-12-28T00:41:25.426Z,27.17
2022-12-28T00:43:53.122Z,21.30
2022-12-28T00:46:20.840Z,22.98
2022-12-28T00:48:48.231Z,17.60
2022-12-28T00:51:19.362Z,18.48
2022-12-28T00:53:47.206Z,16.82
2022-12-28T00:56:18.877Z,17.12
2022-12-28T00:58:49.138Z,19.02
2022-12-28T01:01:20.962Z,16.23
2022-12-28T01:03:49.066Z,23.83
2022-12-28T01:06:20.390Z,16.50
2022-12-28T01:08:48.263Z,11.53
2022-12-28T01:11:25.755Z,12.45
2022-12-28T01:13:57.620Z,11.15
2022-12-28T01:16:33.229Z,10.90
2022-12-28T01:19:04.972Z,10.50
2022-12-28T01:21:34.729Z,13.53
2022-12-28T01:24:07.299Z,11.95
2022-12-28T01:26:35.249Z,8.75
2022-12-28T01:29:03.414Z,10.05
2022-12-28T01:31:33.342Z,10.53
2022-12-28T01:34:01.915Z,10.98
2022-12-28T01:36:32.369Z,11.88
2022-12-28T01:39:03.838Z,14.13
2022-12-28T01:41:37.103Z,16.35
2022-12-28T01:44:10.275Z,17.52
2022-12-28T01:46:54.975Z,16.40
2022-12-28T01:49:45.937Z,11.33
2022-12-28T01:52:28.241Z,13.68
2022-12-28T01:55:19.306Z,16.93
2022-12-28T01:57:52.386Z,11.38
2022-12-28T02:00:20.359Z,9.60
2022-12-28T02:02:59.065Z,8.73
2022-12-28T02:05:34.493Z,7.95
2022-12-28T02:08:07.196Z,9.10
2022-12-28T02:10:42.805Z,8.27
2022-12-28T02:13:07.416Z,8.63
2022-12-28T02:15:35.765Z,12.45
2022-12-28T02:18:03.895Z,13.75
2022-12-28T02:20:43.971Z,13.22
2022-12-28T02:24:06.165Z,15.75
2022-12-28T02:27:14.623Z,17.67
2022-12-28T02:30:11.043Z,20.60
2022-12-28T02:33:04.773Z,17.02
2022-12-28T02:36:02.634Z,15.05
2022-12-28T02:38:49.343Z,10.43
2022-12-28T02:41:23.988Z,10.95
2022-12-28T02:43:54.128Z,12.65
2022-12-28T02:46:49.593Z,15.28
2022-12-28T02:49:46.227Z,13.50
2022-12-28T02:52:39.026Z,13.43
2022-12-28T02:56:08.402Z,16.10
2022-12-28T02:59:01.084Z,15.23
2022-12-28T03:01:54.175Z,11.57
2022-12-28T03:04:50.208Z,9.90
2022-12-28T03:07:45.411Z,9.63
2022-12-28T03:10:45.493Z,8.70
2022-12-28T03:13:44.496Z,9.15
2022-12-28T03:16:25.151Z,9.05
2022-12-28T03:19:22.085Z,9.50
2022-12-28T03:22:13.117Z,9.10
2022-12-28T03:25:04.200Z,9.10
2022-12-28T03:27:52.776Z,10.60
2022-12-28T03:30:41.218Z,13.98
2022-12-28T03:33:13.330Z,18.80
2022-12-28T03:36:07.111Z,18.32
2022-12-28T03:39:13.803Z,14.05
2022-12-28T03:42:41.662Z,12.10
2022-12-28T03:45:45.669Z,12.40
2022-12-28T03:48:11.893Z,11.88
2022-12-28T03:50:50.759Z,14.13
2022-12-28T03:53:36.038Z,17.07
2022-12-28T03:56:16.575Z,19.60
2022-12-28T03:58:53.881Z,13.28
2022-12-28T04:01:32.935Z,13.30
2022-12-28T04:04:04.685Z,12.63
2022-12-28T04:06:39.754Z,13.93
2022-12-28T04:09:09.250Z,14.73
2022-12-28T04:11:42.328Z,14.20
2022-12-28T04:14:13.207Z,12.28
2022-12-28T04:16:43.176Z,20.43
2022-12-28T04:19:12.866Z,10.80
2022-12-28T04:21:40.706Z,9.75
2022-12-28T04:24:08.823Z,9.85
2022-12-28T04:26:37.371Z,15.13
2022-12-28T04:29:05.161Z,12.47
2022-12-28T04:31:40.464Z,13.08
2022-12-28T04:34:10.036Z,12.45
2022-12-28T04:36:39.954Z,12.25
2022-12-28T04:39:09.878Z,11.50
2022-12-28T04:41:37.562Z,16.45
2022-12-28T04:44:05.268Z,13.20
2022-12-28T04:46:33.042Z,12.73
2022-12-28T04:49:01.130Z,11.28
2022-12-28T04:51:29.657Z,12.07
2022-12-28T04:53:58.160Z,14.95
2022-12-28T04:56:27.519Z,13.98
2022-12-28T04:58:57.940Z,14.13
2022-12-28T05:01:26.223Z,14.38
2022-12-28T05:03:57.374Z,14.13
2022-12-28T05:06:26.780Z,14.58
2022-12-28T05:08:56.796Z,13.43
2022-12-28T05:11:27.856Z,15.30
2022-12-28T05:13:56.843Z,16.20
2022-12-28T05:16:27.295Z,18.73
2022-12-28T05:18:57.009Z,16.90
2022-12-28T05:21:27.805Z,16.07
2022-12-28T05:23:56.022Z,15.38
2022-12-28T05:26:28.187Z,14.98
2022-12-28T05:28:56.752Z,14.25
2022-12-28T05:31:24.989Z,14.53
2022-12-28T05:33:54.546Z,15.32
2022-12-28T05:36:27.468Z,14.87
2022-12-28T05:38:56.366Z,16.60
2022-12-28T05:41:27.783Z,18.10
2022-12-28T05:43:57.553Z,15.10
2022-12-28T05:46:29.468Z,17.07
2022-12-28T05:48:57.625Z,15.43
2022-12-28T05:51:29.024Z,16.45
2022-12-28T05:53:59.780Z,15.32
2022-12-28T05:56:29.757Z,13.48
2022-12-28T05:59:01.918Z,13.58
2022-12-28T06:01:34.039Z,14.33
2022-12-28T06:04:05.276Z,13.32
2022-12-28T06:06:34.730Z,13.80
2022-12-28T06:09:03.495Z,15.20
2022-12-28T06:11:31.656Z,18.23
2022-12-28T06:14:00.180Z,19.07
2022-12-28T06:16:31.030Z,19.95
2022-12-28T06:18:59.453Z,21.20
2022-12-28T06:21:32.395Z,20.88
2022-12-28T06:24:02.156Z,22.87
2022-12-28T06:26:35.928Z,24.43
2022-12-28T06:29:04.645Z,25.65
2022-12-28T06:31:38.756Z,29.18
2022-12-28T06:34:09.603Z,31.68
2022-12-28T06:36:43.454Z,29.85
2022-12-28T06:39:14.176Z,29.67
2022-12-28T06:41:42.738Z,31.23
2022-12-28T06:44:13.259Z,31.30
2022-12-28T06:46:41.436Z,33.40
2022-12-28T06:49:09.051Z,29.35
2022-12-28T06:51:39.918Z,28.27
2022-12-28T06:54:09.376Z,27.45
2022-12-28T06:56:38.069Z,26.00
2022-12-28T06:59:06.010Z,28.65
2022-12-28T07:01:39.832Z,33.45
2022-12-28T07:04:10.259Z,34.78
2022-12-28T07:06:42.280Z,40.17
2022-12-28T07:09:14.024Z,42.20
2022-12-28T07:11:42.466Z,55.80
2022-12-28T07:14:10.486Z,60.40
2022-12-28T07:19:05.043Z,61.35
2022-12-28T07:21:37.137Z,51.92
2022-12-28T07:24:06.078Z,40.73
2022-12-28T07:26:36.693Z,41.10
2022-12-28T07:29:06.698Z,49.18
2022-12-28T07:31:44.197Z,52.58
2022-12-28T07:34:07.588Z,45.52
2022-12-28T07:36:35.069Z,41.70
2022-12-28T07:39:02.757Z,37.35
2022-12-28T07:41:33.680Z,37.17
2022-12-28T07:44:01.939Z,32.50
2022-12-28T07:46:33.411Z,28.92
2022-12-28T07:49:01.673Z,26.50
2022-12-28T07:51:34.298Z,21.85
2022-12-28T07:54:03.102Z,18.52
2022-12-28T07:59:05.892Z,23.57
2022-12-28T08:01:36.128Z,27.05
2022-12-28T08:04:11.083Z,28.45
2022-12-28T08:06:41.993Z,28.05
2022-12-28T08:09:12.736Z,28.17
2022-12-28T08:11:43.811Z,33.02
2022-12-28T08:14:12.433Z,32.08
2022-12-28T08:16:42.449Z,28.70
2022-12-28T08:19:11.580Z,27.13
2022-12-28T08:21:43.103Z,21.30
2022-12-28T08:24:18.095Z,18.27
2022-12-28T08:26:47.132Z,18.25
2022-12-28T08:29:18.798Z,17.45
2022-12-28T08:31:46.885Z,19.05
2022-12-28T08:34:19.411Z,20.05
2022-12-28T08:36:47.071Z,19.87
2022-12-28T08:39:15.022Z,19.70
2022-12-28T08:41:42.781Z,17.05
2022-12-28T08:44:10.425Z,13.83
2022-12-28T08:46:39.847Z,19.40
2022-12-28T08:49:07.744Z,20.00
2022-12-28T08:51:40.782Z,18.87
2022-12-28T08:54:10.678Z,19.85
2022-12-28T08:56:41.851Z,23.73
2022-12-28T08:59:13.623Z,20.37
2022-12-28T09:01:44.500Z,19.23
2022-12-28T09:04:20.648Z,15.75
2022-12-28T09:06:48.816Z,14.70
2022-12-28T09:09:19.289Z,14.65
2022-12-28T09:11:48.009Z,12.98
2022-12-28T09:14:22.719Z,13.28
2022-12-28T09:16:45.450Z,12.10
2022-12-28T09:19:15.250Z,11.93
2022-12-28T09:21:44.856Z,10.55
2022-12-28T09:24:13.653Z,8.65
2022-12-28T09:26:41.364Z,9.00
2022-12-28T09:29:13.127Z,6.60
2022-12-28T09:31:41.888Z,4.80
2022-12-28T09:36:44.458Z,6.53
2022-12-28T09:39:16.833Z,6.12
2022-12-28T09:41:57.870Z,9.70
2022-12-28T09:45:00.126Z,7.00
2022-12-28T09:47:45.445Z,9.15
2022-12-28T09:50:28.716Z,10.70
2022-12-28T09:53:17.114Z,11.40
2022-12-28T09:55:50.441Z,12.10
2022-12-28T09:58:17.988Z,10.72
2022-12-28T10:00:49.522Z,5.87
2022-12-28T10:03:27.410Z,5.90
2022-12-28T10:05:57.477Z,7.55
2022-12-28T10:08:27.448Z,5.00
2022-12-28T10:10:59.883Z,4.87
2022-12-28T10:16:05.949Z,3.60
2022-12-28T10:18:39.384Z,4.33
2022-12-28T10:21:05.448Z,5.45
2022-12-28T10:23:41.246Z,7.25
2022-12-28T10:26:07.192Z,4.92
2022-12-28T10:28:54.099Z,8.68
2022-12-28T10:31:37.625Z,4.72
2022-12-28T10:34:23.873Z,4.58
2022-12-28T10:36:54.288Z,3.47
2022-12-28T10:39:28.789Z,15.38
2022-12-28T10:41:58.668Z,4.72
2022-12-28T10:44:40.113Z,5.28
2022-12-28T10:47:17.759Z,6.28
2022-12-28T10:50:10.448Z,4.15
2022-12-28T10:52:21.405Z,5.55
2022-12-28T10:55:07.461Z,4.42
2022-12-28T10:57:28.935Z,5.03
2022-12-28T11:00:22.611Z,4.50
2022-12-28T11:02:50.300Z,3.55
2022-12-28T11:05:22.898Z,4.65
2022-12-28T11:07:55.832Z,5.05
2022-12-28T11:10:29.716Z,4.62
2022-12-28T11:13:00.644Z,6.20
2022-12-28T11:15:31.896Z,5.65
2022-12-28T11:18:04.480Z,4.58
2022-12-28T11:20:36.871Z,4.60
2022-12-28T11:23:08.858Z,4.25
2022-12-28T11:25:37.715Z,4.35
2022-12-28T11:28:09.739Z,4.72
2022-12-28T11:30:37.159Z,4.03
2022-12-28T11:33:07.876Z,3.52
2022-12-28T11:35:39.095Z,4.03
2022-12-28T11:38:09.948Z,4.22
2022-12-28T11:40:51.649Z,4.72
2022-12-28T11:43:38.732Z,4.00
2022-12-28T11:46:27.282Z,3.40
2022-12-28T11:49:01.462Z,3.30
2022-12-28T11:51:35.459Z,3.77
2022-12-28T11:54:08.711Z,3.40
2022-12-28T11:56:54.005Z,4.58
2022-12-28T11:59:31.462Z,2.72
2022-12-28T12:02:09.589Z,3.20
2022-12-28T12:04:44.385Z,3.35
2022-12-28T12:07:29.074Z,3.30
2022-12-28T12:10:30.921Z,3.17
2022-12-28T12:12:59.556Z,3.02
2022-12-28T12:15:35.691Z,2.70
2022-12-28T12:18:08.089Z,2.60
2022-12-28T12:20:58.809Z,2.40
2022-12-28T12:23:39.400Z,1.60
2022-12-28T12:26:21.638Z,2.33
2022-12-28T12:28:53.941Z,1.30
2022-12-28T12:31:33.196Z,1.50
2022-12-28T12:34:25.909Z,1.50
2022-12-28T12:37:40.166Z,1.50
2022-12-28T12:40:41.388Z,1.20
2022-12-28T12:43:38.363Z,1.22
2022-12-28T12:46:37.206Z,1.52
2022-12-28T12:49:43.379Z,1.57
2022-12-28T12:52:51.750Z,1.87
2022-12-28T12:55:48.489Z,2.22
2022-12-28T12:58:34.139Z,3.27
2022-12-28T13:01:50.117Z,3.70
2022-12-28T13:04:27.308Z,3.62
2022-12-28T13:06:59.039Z,3.62
2022-12-28T13:09:30.377Z,3.45
2022-12-28T13:11:59.633Z,3.85
2022-12-28T13:14:28.108Z,3.85
2022-12-28T13:16:58.464Z,3.77
2022-12-28T13:19:29.327Z,3.92
2022-12-28T13:21:58.600Z,6.53
2022-12-28T13:24:30.022Z,6.15
2022-12-28T13:26:59.828Z,5.28
2022-12-28T13:29:35.730Z,5.62
2022-12-28T13:32:03.589Z,6.03
2022-12-28T13:34:35.471Z,4.22
2022-12-28T13:37:16.186Z,4.53
2022-12-28T13:39:47.489Z,4.70
2022-12-28T13:42:19.903Z,4.85
2022-12-28T13:45:01.602Z,6.75
2022-12-28T13:47:40.305Z,7.95
2022-12-28T13:50:18.742Z,8.40
2022-12-28T13:53:06.769Z,9.80
2022-12-28T13:55:39.874Z,8.70
2022-12-28T13:58:18.643Z,8.55
2022-12-28T14:00:48.411Z,8.73
2022-12-28T14:03:18.223Z,8.93
2022-12-28T14:05:51.119Z,8.60
2022-12-28T14:08:18.761Z,6.65
2022-12-28T14:10:47.715Z,5.20
2022-12-28T14:13:18.181Z,5.90
2022-12-28T14:15:46.827Z,5.58
2022-12-28T14:18:18.289Z,6.78
2022-12-28T14:20:55.057Z,9.20
2022-12-28T14:23:32.647Z,16.62
2022-12-28T14:26:20.022Z,18.98
2022-12-28T14:28:52.427Z,28.60
2022-12-28T14:31:25.433Z,20.25
2022-12-28T14:34:03.123Z,20.72
2022-12-28T14:36:38.812Z,23.42
2022-12-28T14:39:07.365Z,23.18
2022-12-28T14:41:44.858Z,20.17
2022-12-28T14:44:20.925Z,16.48
2022-12-28T14:46:52.142Z,14.95
2022-12-28T14:49:35.635Z,12.93
2022-12-28T14:52:15.777Z,12.18
2022-12-28T14:54:51.071Z,9.95
2022-12-28T14:57:35.691Z,9.28
2022-12-28T15:00:17.814Z,6.78
2022-12-28T15:02:45.945Z,6.47
2022-12-28T15:05:38.586Z,6.97
2022-12-28T15:08:07.191Z,19.62
2022-12-28T15:10:42.282Z,20.08
2022-12-28T15:13:11.244Z,31.10
2022-12-28T15:15:38.885Z,42.70
2022-12-28T15:18:06.506Z,40.85
2022-12-28T15:20:37.623Z,31.00
2022-12-28T15:23:05.608Z,30.60
2022-12-28T15:25:35.139Z,34.43
2022-12-28T15:28:03.581Z,30.05
2022-12-28T15:30:31.043Z,30.05
2022-12-28T15:32:58.853Z,26.07
2022-12-28T15:35:26.626Z,24.00
2022-12-28T15:37:54.009Z,24.25
2022-12-28T15:40:21.760Z,26.85
2022-12-28T15:42:49.339Z,30.43
2022-12-28T15:45:17.552Z,49.33
2022-12-28T15:47:45.715Z,60.58
2022-12-28T15:50:13.466Z,49.70
2022-12-28T15:52:40.963Z,64.35
2022-12-28T15:55:09.093Z,66.17
2022-12-28T15:57:36.811Z,71.17
2022-12-28T16:00:05.649Z,85.70
2022-12-28T16:02:33.399Z,86.20
2022-12-28T16:05:01.743Z,73.95
2022-12-28T16:07:29.353Z,66.00
2022-12-28T16:09:56.819Z,57.45
2022-12-28T16:12:24.395Z,60.58
2022-12-28T16:14:51.868Z,60.17
2022-12-28T16:17:19.450Z,63.52
2022-12-28T16:19:47.232Z,64.77
2022-12-28T16:22:14.853Z,66.90
2022-12-28T16:24:42.590Z,62.23
2022-12-28T16:27:10.164Z,61.50
2022-12-28T16:29:37.995Z,56.73
2022-12-28T16:32:05.985Z,52.08
2022-12-28T16:34:33.903Z,49.23
2022-12-28T16:37:01.971Z,53.65
2022-12-28T16:39:30.450Z,69.77
2022-12-28T16:41:58.333Z,70.92
2022-12-28T16:44:27.366Z,50.78
2022-12-28T16:46:59.699Z,44.90
2022-12-28T16:49:29.071Z,43.17
2022-12-28T16:51:57.095Z,45.95
2022-12-28T16:54:26.912Z,45.25
2022-12-28T16:56:55.073Z,48.63
2022-12-28T16:59:26.507Z,49.60
2022-12-28T17:01:56.441Z,51.37
2022-12-28T17:04:24.485Z,51.23
2022-12-28T17:06:52.583Z,54.53
2022-12-28T17:09:20.996Z,41.00
2022-12-28T17:11:50.167Z,34.10
2022-12-28T17:14:35.933Z,33.80
2022-12-28T17:16:47.932Z,39.23
2022-12-28T17:19:16.452Z,39.65
2022-12-28T17:21:44.015Z,41.65
2022-12-28T17:24:11.710Z,38.92
2022-12-28T17:26:39.384Z,39.38
2022-12-28T17:29:06.966Z,37.83
2022-12-28T17:31:34.742Z,36.30
2022-12-28T17:34:03.180Z,35.17
2022-12-28T17:36:31.000Z,35.65
2022-12-28T17:38:58.547Z,40.80
2022-12-28T17:41:28.161Z,40.45
2022-12-28T17:43:59.419Z,49.67
2022-12-28T17:46:29.442Z,55.33
2022-12-28T17:48:59.765Z,61.92
2022-12-28T17:51:28.724Z,54.75
2022-12-28T17:53:57.150Z,54.75
2022-12-28T17:56:25.723Z,67.58
2022-12-28T17:58:58.512Z,70.32
2022-12-28T18:01:27.380Z,68.60
2022-12-28T18:03:56.906Z,61.00
2022-12-28T18:06:25.605Z,50.60
2022-12-28T18:08:53.183Z,47.35
2022-12-28T18:11:20.987Z,44.98
2022-12-28T18:13:48.718Z,36.75
2022-12-28T18:16:19.431Z,33.33
2022-12-28T18:18:47.803Z,31.80
2022-12-28T18:21:21.794Z,32.45
2022-12-28T18:23:50.623Z,30.30
2022-12-28T18:26:25.661Z,31.68
2022-12-28T18:28:55.950Z,32.80
2022-12-28T18:31:24.841Z,32.95
2022-12-28T18:33:52.719Z,38.95
2022-12-28T18:36:23.285Z,40.52
2022-12-28T18:38:50.801Z,45.12
2022-12-28T18:41:22.610Z,45.17
2022-12-28T18:43:53.234Z,52.10
2022-12-28T18:46:20.952Z,60.65
2022-12-28T18:48:48.397Z,57.30
2022-12-28T18:51:17.932Z,58.80
2022-12-28T18:53:45.783Z,56.42
2022-12-28T18:56:20.138Z,50.28
2022-12-28T18:58:55.764Z,45.78
2022-12-28T19:04:00.126Z,40.48
2022-12-28T19:06:28.781Z,40.98
2022-12-28T19:09:00.474Z,40.80
2022-12-28T19:11:28.931Z,41.75
2022-12-28T19:13:57.336Z,47.05
2022-12-28T19:16:31.010Z,48.40
2022-12-28T19:18:54.558Z,53.55
2022-12-28T19:21:40.272Z,74.70
2022-12-28T19:24:18.476Z,60.23
2022-12-28T19:26:47.377Z,56.70
2022-12-28T19:29:15.985Z,51.13
2022-12-28T19:31:44.214Z,52.65
2022-12-28T19:34:12.465Z,41.30
2022-12-28T19:36:40.307Z,35.83
2022-12-28T19:39:07.741Z,35.30
2022-12-28T19:41:35.343Z,35.85
2022-12-28T19:44:03.069Z,47.65
2022-12-28T19:46:31.137Z,62.23
2022-12-28T19:49:01.741Z,69.90
2022-12-28T19:51:32.148Z,55.33
2022-12-28T19:54:01.169Z,49.73
2022-12-28T19:56:30.858Z,55.12
2022-12-28T19:59:05.390Z,57.20
2022-12-28T20:01:28.688Z,46.48
2022-12-28T20:03:56.781Z,40.65
2022-12-28T20:06:28.311Z,46.75
2022-12-28T20:08:59.290Z,45.40
2022-12-28T20:11:28.419Z,40.98
2022-12-28T20:14:02.161Z,28.98
2022-12-28T20:16:32.483Z,26.15
2022-12-28T20:19:01.107Z,24.60
2022-12-28T20:21:28.585Z,22.93
2022-12-28T20:23:56.258Z,24.92
2022-12-28T20:26:26.291Z,24.35
2022-12-28T20:28:54.163Z,24.05
2022-12-28T20:31:22.105Z,22.25
2022-12-28T20:33:50.276Z,23.65
2022-12-28T20:36:24.812Z,24.85
2022-12-28T20:38:55.032Z,26.17
2022-12-28T20:41:44.964Z,26.17
2022-12-28T20:44:17.322Z,28.98
2022-12-28T20:46:45.955Z,31.75
2022-12-28T20:49:13.447Z,30.05
2022-12-28T20:51:41.865Z,27.35
2022-12-28T20:54:10.746Z,24.85
2022-12-28T20:56:41.306Z,25.27
2022-12-28T20:59:11.060Z,28.25
2022-12-28T21:01:39.874Z,31.37
2022-12-28T21:04:08.594Z,32.75
2022-12-28T21:06:36.237Z,30.85
2022-12-28T21:09:05.093Z,31.35
2022-12-28T21:11:32.883Z,31.17
2022-12-28T21:14:00.526Z,35.00
2022-12-28T21:16:28.211Z,36.28
2022-12-28T21:18:55.959Z,39.98
2022-12-28T21:21:23.889Z,48.08
2022-12-28T21:23:54.244Z,49.53
2022-12-28T21:26:22.564Z,43.48
2022-12-28T21:28:50.905Z,45.17
2022-12-28T21:31:18.332Z,43.08
2022-12-28T21:33:46.006Z,43.52
2022-12-28T21:36:17.187Z,37.40
2022-12-28T21:38:46.788Z,35.08
2022-12-28T21:41:37.134Z,33.78
2022-12-28T21:44:11.195Z,39.63
2022-12-28T21:46:39.266Z,38.15
2022-12-28T21:49:07.561Z,39.50
2022-12-28T21:51:35.605Z,36.45
2022-12-28T21:54:16.713Z,39.15
2022-12-28T21:56:48.581Z,34.40
2022-12-28T21:59:16.016Z,34.53
2022-12-28T22:02:02.235Z,31.50
2022-12-28T22:04:48.936Z,33.42
2022-12-28T22:07:18.801Z,35.65
2022-12-28T22:10:05.575Z,30.27
2022-12-28T22:12:34.022Z,28.15
2022-12-28T22:15:33.815Z,27.17
2022-12-28T22:18:08.701Z,25.08
2022-12-28T22:20:37.773Z,24.47
2022-12-28T22:23:06.509Z,19.15
2022-12-28T22:25:36.279Z,17.20
2022-12-28T22:28:05.097Z,15.90
2022-12-28T22:30:35.559Z,20.77
2022-12-28T22:33:03.732Z,19.92
2022-12-28T22:35:32.134Z,18.05
2022-12-28T22:38:00.441Z,20.80
2022-12-28T22:40:28.748Z,16.17
2022-12-28T22:42:56.401Z,18.20
2022-12-28T22:45:24.398Z,23.40
2022-12-28T22:47:53.734Z,24.15
2022-12-28T22:50:21.430Z,19.17
2022-12-28T22:52:49.137Z,17.05
2022-12-28T22:55:16.982Z,22.05
2022-12-28T22:57:44.715Z,23.50
2022-12-28T23:00:14.555Z,25.80
2022-12-28T23:02:42.423Z,29.52
2022-12-28T23:05:10.589Z,23.73
2022-12-28T23:07:38.982Z,24.02
2022-12-28T23:10:09.627Z,24.95
2022-12-28T23:12:37.633Z,23.15
2022-12-28T23:15:17.733Z,21.77
2022-12-28T23:17:47.727Z,20.43
2022-12-28T23:20:36.504Z,15.30
2022-12-28T23:23:22.647Z,16.17
2022-12-28T23:26:08.978Z,17.60
2022-12-28T23:28:36.670Z,17.55
2022-12-28T23:31:04.835Z,19.73
2022-12-28T23:33:32.268Z,19.87
2022-12-28T23:36:04.393Z,17.23
2022-12-28T23:38:32.853Z,14.83
2022-12-28T23:41:24.560Z,13.20
2022-12-28T23:43:52.128Z,12.28
2022-12-28T23:46:19.747Z,13.03
2022-12-28T23:48:47.493Z,10.85
2022-12-28T23:51:16.569Z,10.90
2022-12-28T23:53:44.361Z,10.90
2022-12-28T23:56:11.897Z,11.43
2022-12-28T23:58:39.773Z,11.05
